createdAt,value
2022-10-18T00:00:55.845Z,22.57
2022-10-18T00:05:58.623Z,24.63
2022-10-18T00:11:01.538Z,22.10
2022-10-18T00:16:06.155Z,22.90
2022-10-18T00:21:14.818Z,23.50
2022-10-18T00:26:20.290Z,19.13
2022-10-18T00:31:27.974Z,32.40
2022-10-18T00:36:34.406Z,18.53
2022-10-18T00:41:38.266Z,24.60
2022-10-18T00:46:46.710Z,21.63
2022-10-18T00:52:03.798Z,23.13
2022-10-18T00:57:07.784Z,23.37
2022-10-18T01:02:11.211Z,21.00
2022-10-18T01:07:38.844Z,23.67
2022-10-18T01:13:02.649Z,20.40
2022-10-18T01:18:26.945Z,26.03
2022-10-18T01:23:41.438Z,26.43
2022-10-18T01:29:17.750Z,24.77
2022-10-18T01:34:21.465Z,18.93
2022-10-18T01:39:38.102Z,21.40
2022-10-18T01:44:44.203Z,25.17
2022-10-18T01:49:47.284Z,21.97
2022-10-18T01:54:50.232Z,24.93
2022-10-18T02:00:00.316Z,23.80
2022-10-18T02:05:03.027Z,21.00
2022-10-18T02:10:21.496Z,27.23
2022-10-18T02:15:41.356Z,23.53
2022-10-18T02:20:44.500Z,20.90
2022-10-18T02:25:47.574Z,25.00
2022-10-18T02:31:04.806Z,23.27
2022-10-18T02:36:38.307Z,22.90
2022-10-18T02:41:41.719Z,29.37
2022-10-18T02:46:45.436Z,27.00
2022-10-18T02:51:48.156Z,24.37
2022-10-18T02:56:51.016Z,24.07
2022-10-18T03:01:53.799Z,22.10
2022-10-18T03:06:56.561Z,26.47
2022-10-18T03:11:59.434Z,28.57
2022-10-18T03:17:02.131Z,26.77
2022-10-18T03:22:05.564Z,27.87
2022-10-18T03:27:08.347Z,24.77
2022-10-18T03:32:11.081Z,27.13
2022-10-18T03:37:13.826Z,30.00
2022-10-18T03:42:16.763Z,30.23
2022-10-18T03:47:19.591Z,26.97
2022-10-18T03:52:22.271Z,29.93
2022-10-18T03:57:25.078Z,31.23
2022-10-18T04:02:27.937Z,32.50
2022-10-18T04:12:37.440Z,31.57
2022-10-18T04:17:40.165Z,26.57
2022-10-18T04:22:42.905Z,29.93
2022-10-18T04:27:45.721Z,31.97
2022-10-18T04:32:48.532Z,31.10
2022-10-18T04:37:51.602Z,31.23
2022-10-18T04:42:54.315Z,27.87
2022-10-18T04:47:57.062Z,30.13
2022-10-18T04:52:59.755Z,33.33
2022-10-18T04:58:02.553Z,31.73
2022-10-18T05:03:05.408Z,34.47
2022-10-18T05:08:08.601Z,26.63
2022-10-18T05:13:11.298Z,30.87
2022-10-18T05:18:14.042Z,32.07
2022-10-18T05:23:16.768Z,30.40
2022-10-18T05:28:39.741Z,31.13
2022-10-18T05:33:42.311Z,32.73
2022-10-18T05:38:45.678Z,28.83
2022-10-18T05:43:48.420Z,27.00
2022-10-18T05:48:51.868Z,27.87
2022-10-18T05:53:54.945Z,30.57
2022-10-18T05:58:57.678Z,26.17
2022-10-18T06:04:00.464Z,22.63
2022-10-18T06:09:03.924Z,21.20
2022-10-18T06:14:07.721Z,26.47
2022-10-18T06:19:10.511Z,27.03
2022-10-18T06:24:13.278Z,29.53
2022-10-18T06:29:16.029Z,23.50
2022-10-18T06:34:18.806Z,22.20
2022-10-18T06:39:21.737Z,22.73
2022-10-18T06:44:24.513Z,24.37
2022-10-18T06:49:27.316Z,27.33
2022-10-18T06:54:30.047Z,23.97
2022-10-18T06:59:35.570Z,29.87
2022-10-18T07:04:38.282Z,29.53
2022-10-18T07:09:41.118Z,26.43
2022-10-18T07:14:44.219Z,25.60
2022-10-18T07:19:46.907Z,29.67
2022-10-18T07:24:49.751Z,26.50
2022-10-18T07:29:52.554Z,25.40
2022-10-18T07:34:55.273Z,27.17
2022-10-18T07:39:58.016Z,33.57
2022-10-18T07:45:00.714Z,31.40
2022-10-18T07:50:03.720Z,26.43
2022-10-18T07:55:06.663Z,33.77
2022-10-18T08:00:09.972Z,27.63
2022-10-18T08:05:14.218Z,27.83
2022-10-18T08:10:16.973Z,25.93
2022-10-18T08:15:21.899Z,29.57
2022-10-18T08:20:30.986Z,26.60
2022-10-18T08:25:34.108Z,26.40
2022-10-18T08:30:37.194Z,32.60
2022-10-18T08:35:39.876Z,23.83
2022-10-18T08:40:46.121Z,26.47
2022-10-18T08:45:51.248Z,31.07
2022-10-18T08:50:56.429Z,23.73
2022-10-18T08:56:05.227Z,17.77
2022-10-18T09:01:36.463Z,17.73
2022-10-18T09:07:04.353Z,21.90
2022-10-18T09:12:23.547Z,18.13
2022-10-18T09:17:53.699Z,18.87
2022-10-18T09:23:21.166Z,16.37
2022-10-18T09:28:54.253Z,13.00
2022-10-18T09:34:02.924Z,18.93
2022-10-18T09:39:11.540Z,15.03
2022-10-18T09:44:32.792Z,15.87
2022-10-18T09:49:44.652Z,15.23
2022-10-18T09:54:59.295Z,27.83
2022-10-18T10:00:04.785Z,31.80
2022-10-18T10:05:14.383Z,29.00
2022-10-18T10:10:29.278Z,25.57
2022-10-18T10:15:36.951Z,25.20
2022-10-18T10:20:53.777Z,24.00
2022-10-18T10:25:59.827Z,22.53
2022-10-18T10:31:30.231Z,21.00
2022-10-18T10:36:34.329Z,23.30
2022-10-18T10:41:37.976Z,22.13
2022-10-18T10:46:40.761Z,22.17
2022-10-18T10:51:44.197Z,21.30
2022-10-18T10:57:12.549Z,28.97
2022-10-18T11:02:18.222Z,22.27
2022-10-18T11:07:42.673Z,19.43
2022-10-18T11:13:01.615Z,18.50
2022-10-18T11:18:29.476Z,16.77
2022-10-18T11:23:34.226Z,9.83
2022-10-18T11:28:36.991Z,6.27
2022-10-18T11:34:15.548Z,4.60
2022-10-18T11:39:47.751Z,3.90
2022-10-18T11:45:15.248Z,4.37
2022-10-18T11:50:55.808Z,3.83
2022-10-18T11:56:04.673Z,3.37
2022-10-18T12:01:39.424Z,3.67
2022-10-18T12:06:44.469Z,4.30
2022-10-18T12:11:55.693Z,2.60
2022-10-18T12:17:35.823Z,3.43
2022-10-18T12:22:35.413Z,1.30
2022-10-18T12:27:48.063Z,3.50
2022-10-18T12:33:09.938Z,5.03
2022-10-18T12:38:27.055Z,2.87
2022-10-18T12:43:36.690Z,2.90
2022-10-18T12:48:43.189Z,1.50
2022-10-18T12:53:49.676Z,1.90
2022-10-18T12:58:52.388Z,1.80
2022-10-18T13:03:58.716Z,1.97
2022-10-18T13:09:18.546Z,2.47
2022-10-18T13:14:48.233Z,4.43
2022-10-18T13:20:28.517Z,3.87
2022-10-18T13:25:46.415Z,2.87
2022-10-18T13:31:18.920Z,5.33
2022-10-18T13:36:25.379Z,3.43
2022-10-18T13:41:34.484Z,1.77
2022-10-18T13:46:49.624Z,1.97
2022-10-18T13:52:09.048Z,5.37
2022-10-18T13:57:29.803Z,2.53
2022-10-18T14:02:52.998Z,2.40
2022-10-18T14:14:03.115Z,1.73
2022-10-18T14:19:27.709Z,2.97
2022-10-18T14:24:31.334Z,2.60
2022-10-18T14:29:34.082Z,2.90
2022-10-18T14:34:37.149Z,3.63
2022-10-18T14:39:39.884Z,4.47
2022-10-18T14:44:47.646Z,3.20
2022-10-18T14:49:54.375Z,3.13
2022-10-18T14:54:58.765Z,3.53
2022-10-18T15:00:05.839Z,6.60
2022-10-18T15:05:22.324Z,3.37
2022-10-18T15:10:31.114Z,2.83
2022-10-18T15:15:34.941Z,3.83
2022-10-18T15:20:43.017Z,4.13
2022-10-18T15:25:46.035Z,5.17
2022-10-18T15:30:48.936Z,3.97
2022-10-18T15:35:53.201Z,4.83
2022-10-18T15:40:56.486Z,3.70
2022-10-18T15:46:06.716Z,3.67
2022-10-18T15:51:47.528Z,6.20
2022-10-18T15:56:50.278Z,4.27
2022-10-18T16:01:54.038Z,4.73
2022-10-18T16:06:58.041Z,4.27
2022-10-18T16:12:00.784Z,6.53
2022-10-18T16:17:06.823Z,8.43
2022-10-18T16:27:16.639Z,11.60
2022-10-18T16:32:19.343Z,11.53
2022-10-18T16:37:22.006Z,17.50
2022-10-18T16:42:24.823Z,11.33
2022-10-18T16:47:27.547Z,8.90
2022-10-18T16:52:30.346Z,10.67
2022-10-18T16:57:33.248Z,39.40
2022-10-18T17:02:35.941Z,38.50
2022-10-18T17:07:38.706Z,11.67
2022-10-18T17:12:41.783Z,11.60
2022-10-18T17:17:45.085Z,15.37
2022-10-18T17:22:48.391Z,13.07
2022-10-18T17:27:51.070Z,14.03
2022-10-18T17:32:55.367Z,12.27
2022-10-18T17:37:58.614Z,12.40
2022-10-18T17:43:01.320Z,11.67
2022-10-18T17:48:04.118Z,9.63
2022-10-18T17:53:06.841Z,15.00
2022-10-18T17:58:10.235Z,14.13
2022-10-18T18:03:13.665Z,14.53
2022-10-18T18:08:16.544Z,13.67
2022-10-18T18:13:19.782Z,14.60
2022-10-18T18:18:22.665Z,14.97
2022-10-18T18:23:25.749Z,15.60
2022-10-18T18:28:28.488Z,15.97
2022-10-18T18:33:33.963Z,15.63
2022-10-18T18:38:39.032Z,19.00
2022-10-18T18:43:44.413Z,15.47
2022-10-18T18:48:47.541Z,18.30
2022-10-18T18:53:50.651Z,16.90
2022-10-18T18:58:53.839Z,18.13
2022-10-18T19:03:57.844Z,20.47
2022-10-18T19:09:04.017Z,20.00
2022-10-18T19:14:07.976Z,17.50
2022-10-18T19:19:20.381Z,17.77
2022-10-18T19:24:25.251Z,45.47
2022-10-18T19:29:31.479Z,25.50
2022-10-18T19:34:34.800Z,17.53
2022-10-18T19:39:37.750Z,19.20
2022-10-18T19:44:41.088Z,29.93
2022-10-18T19:49:43.930Z,19.03
2022-10-18T19:54:48.578Z,34.57
2022-10-18T19:59:56.027Z,24.23
2022-10-18T20:04:59.496Z,30.30
2022-10-18T20:10:03.441Z,26.90
2022-10-18T20:15:08.943Z,20.30
2022-10-18T20:20:12.063Z,23.47
2022-10-18T20:25:14.764Z,25.70
2022-10-18T20:30:17.573Z,19.97
2022-10-18T20:35:20.898Z,22.27
2022-10-18T20:40:23.650Z,18.20
2022-10-18T20:45:26.347Z,19.67
2022-10-18T20:50:29.054Z,17.47
2022-10-18T20:55:31.819Z,15.23
2022-10-18T21:00:35.184Z,24.53
2022-10-18T21:05:55.339Z,18.43
2022-10-18T21:11:25.587Z,23.37
2022-10-18T21:16:53.259Z,22.53
2022-10-18T21:22:19.038Z,20.27
2022-10-18T21:27:38.894Z,18.70
2022-10-18T21:32:49.814Z,17.00
2022-10-18T21:38:05.037Z,27.33
2022-10-18T21:43:22.826Z,22.67
2022-10-18T21:48:32.481Z,17.50
2022-10-18T21:53:54.769Z,29.90
2022-10-18T21:59:06.386Z,20.80
2022-10-18T22:04:48.131Z,30.70
2022-10-18T22:10:35.669Z,21.13
2022-10-18T22:15:40.873Z,29.57
2022-10-18T22:20:43.735Z,23.60
2022-10-18T22:25:46.483Z,19.67
2022-10-18T22:31:05.288Z,26.40
2022-10-18T22:36:31.677Z,38.37
2022-10-18T22:41:56.346Z,40.60
2022-10-18T22:47:12.065Z,38.80
2022-10-18T22:52:33.251Z,39.97
2022-10-18T22:57:53.953Z,35.27
2022-10-18T23:03:14.054Z,35.30
2022-10-18T23:08:23.441Z,35.47
2022-10-18T23:13:44.774Z,35.70
2022-10-18T23:18:59.308Z,32.70
2022-10-18T23:24:08.424Z,33.03
2022-10-18T23:29:15.404Z,31.83
2022-10-18T23:34:18.316Z,33.50
2022-10-18T23:39:23.608Z,26.07
2022-10-18T23:44:26.532Z,32.77
2022-10-18T23:49:29.237Z,31.43
2022-10-18T23:54:31.981Z,35.23
2022-10-18T23:59:34.685Z,30.03
